Time;durP1;ratioP1;P1;durP2;ratioP2;P2;SDS_P1;SDS_P2;PMS_P1;PMS_P2;Temp;Humidity;BMP_temperature;BMP_pressure;BME280_temperature;BME280_humidity;BME280_pressure;Samples;Min_cycle;Max_cycle;Signal;HPM_P1;HPM_P2
2023/10/26 00:00:33;;;;;;;13.00;7.30;;;10.80;99.90;;;;;;4942773;29;20540;-90
2023/10/26 00:02:59;;;;;;;13.70;8.40;;;10.80;99.90;;;;;;4942711;29;20035;-88
2023/10/26 00:05:26;;;;;;;14.88;7.90;;;10.90;99.90;;;;;;4941727;29;20447;-89
2023/10/26 00:07:52;;;;;;;19.40;7.27;;;10.90;99.90;;;;;;4956879;28;20563;-91
2023/10/26 00:10:18;;;;;;;11.38;7.43;;;10.90;99.90;;;;;;4941312;29;20031;-89
2023/10/26 00:12:47;;;;;;;13.38;7.43;;;10.90;99.90;;;;;;4941975;29;20062;-90
2023/10/26 00:15:12;;;;;;;11.82;7.35;;;11.00;99.90;;;;;;4941329;29;20031;-89
2023/10/26 00:17:39;;;;;;;14.48;7.85;;;11.00;99.90;;;;;;4955321;29;20031;-91
2023/10/26 00:20:14;;;;;;;11.55;7.38;;;11.00;99.90;;;;;;4942405;29;20039;-91
2023/10/26 00:22:41;;;;;;;13.93;8.05;;;11.00;99.90;;;;;;4940942;29;20046;-91
2023/10/26 00:25:11;;;;;;;13.55;6.75;;;11.00;99.90;;;;;;4993410;28;20066;-89
2023/10/26 00:27:40;;;;;;;10.85;6.93;;;11.00;99.90;;;;;;4994347;28;20034;-90
2023/10/26 00:30:13;;;;;;;10.90;7.03;;;11.00;99.90;;;;;;4996767;28;20018;-89
2023/10/26 00:32:40;;;;;;;16.67;7.68;;;11.00;99.90;;;;;;4997668;28;20356;-91
2023/10/26 00:35:08;;;;;;;11.88;7.05;;;11.00;99.90;;;;;;4998123;28;20034;-90
2023/10/26 00:37:34;;;;;;;13.90;6.97;;;11.00;99.90;;;;;;4997766;28;20026;-90
2023/10/26 00:40:00;;;;;;;15.75;7.68;;;11.00;99.90;;;;;;4976066;28;20502;-89
2023/10/26 00:42:26;;;;;;;12.77;7.53;;;11.00;99.90;;;;;;4975891;28;20051;-89
2023/10/26 00:44:56;;;;;;;13.50;7.50;;;11.00;99.90;;;;;;4960344;28;20035;-89
2023/10/26 00:47:23;;;;;;;16.08;8.30;;;11.00;99.90;;;;;;4971511;28;20058;-90
2023/10/26 00:49:53;;;;;;;11.60;7.38;;;11.00;99.90;;;;;;4959617;28;20035;-90
2023/10/26 00:52:20;;;;;;;13.52;8.07;;;11.00;99.90;;;;;;4959988;28;20023;-89
2023/10/26 00:54:48;;;;;;;16.10;8.10;;;11.10;99.90;;;;;;4976160;28;20050;-91
2023/10/26 00:57:17;;;;;;;12.60;7.82;;;11.10;99.90;;;;;;4960066;28;20034;-91
2023/10/26 00:59:48;;;;;;;14.45;8.52;;;11.10;99.90;;;;;;4974909;28;20066;-89
2023/10/26 01:02:18;;;;;;;17.52;8.30;;;11.00;99.90;;;;;;4975662;28;20035;-90
2023/10/26 01:04:44;;;;;;;17.45;8.38;;;11.00;99.90;;;;;;4943544;28;20077;-90
2023/10/26 01:07:10;;;;;;;15.27;7.78;;;11.00;99.90;;;;;;4957268;28;20066;-89
2023/10/26 01:09:42;;;;;;;17.05;8.18;;;11.00;99.90;;;;;;4974458;28;20038;-89
2023/10/26 01:12:08;;;;;;;17.40;9.10;;;11.00;99.90;;;;;;4972698;28;20066;-89
2023/10/26 01:14:35;;;;;;;15.57;8.50;;;11.10;99.90;;;;;;4975130;28;20117;-89
2023/10/26 01:17:01;;;;;;;15.15;8.13;;;11.00;99.90;;;;;;4976106;28;20039;-86
2023/10/26 01:19:46;;;;;;;18.65;9.77;;;11.00;99.90;;;;;;4975880;28;20039;-87
2023/10/26 01:22:12;;;;;;;19.48;9.50;;;11.00;99.90;;;;;;4956182;28;20031;-86
2023/10/26 01:24:39;;;;;;;19.77;10.40;;;11.00;99.90;;;;;;4969685;28;20388;-85
2023/10/26 01:27:05;;;;;;;19.35;9.15;;;11.00;99.90;;;;;;4974356;28;20387;-88
2023/10/26 01:29:32;;;;;;;17.75;9.27;;;10.90;99.90;;;;;;4974469;28;20023;-86
2023/10/26 01:31:58;;;;;;;19.23;9.23;;;11.00;99.90;;;;;;4975749;28;20062;-85
2023/10/26 01:34:27;;;;;;;18.55;8.23;;;11.00;99.90;;;;;;4971045;28;20045;-85
2023/10/26 01:36:52;;;;;;;20.73;9.82;;;11.10;99.90;;;;;;4957726;28;20038;-84
2023/10/26 01:39:18;;;;;;;17.08;8.50;;;11.10;99.90;;;;;;4975688;28;20022;-84
2023/10/26 01:41:46;;;;;;;17.38;9.00;;;11.10;99.90;;;;;;4974120;28;20034;-85
2023/10/26 01:44:13;;;;;;;17.02;10.07;;;11.10;99.90;;;;;;4974392;28;20077;-86
2023/10/26 01:46:39;;;;;;;19.55;10.30;;;11.20;99.90;;;;;;4958152;28;20054;-86
2023/10/26 01:49:08;;;;;;;25.05;9.82;;;11.10;99.90;;;;;;4971302;28;20062;-86
2023/10/26 01:51:35;;;;;;;22.65;10.40;;;11.10;99.90;;;;;;4972926;28;20395;-84
2023/10/26 01:54:05;;;;;;;14.95;9.63;;;11.20;99.90;;;;;;4974939;28;20030;-84
2023/10/26 01:56:41;;;;;;;21.40;10.93;;;11.20;99.90;;;;;;4975028;28;20042;-86
2023/10/26 01:59:08;;;;;;;26.17;11.63;;;11.20;99.90;;;;;;4973600;28;20391;-85
2023/10/26 02:01:37;;;;;;;22.17;11.65;;;11.20;99.90;;;;;;4940852;28;20051;-85
2023/10/26 02:04:04;;;;;;;22.27;12.38;;;11.10;99.90;;;;;;4973669;28;20090;-85
2023/10/26 02:06:33;;;;;;;24.65;12.60;;;11.00;99.90;;;;;;4973645;28;20443;-85
2023/10/26 02:08:59;;;;;;;27.20;13.20;;;10.90;99.90;;;;;;4975001;28;20031;-86
2023/10/26 02:11:25;;;;;;;25.73;11.05;;;10.90;99.90;;;;;;4973939;28;20026;-85
2023/10/26 02:13:50;;;;;;;22.55;12.13;;;10.90;99.90;;;;;;4973675;28;20050;-86
2023/10/26 02:16:20;;;;;;;25.15;11.88;;;10.90;99.90;;;;;;4973664;28;20026;-86
2023/10/26 02:18:46;;;;;;;24.83;12.05;;;10.90;99.90;;;;;;4973644;28;20031;-86
2023/10/26 02:21:18;;;;;;;22.67;11.35;;;10.90;99.90;;;;;;4970926;28;20372;-86
2023/10/26 02:23:44;;;;;;;27.65;11.73;;;10.80;99.90;;;;;;4973942;28;20023;-85
2023/10/26 02:26:13;;;;;;;26.08;11.13;;;10.70;99.90;;;;;;4973513;28;20027;-86
2023/10/26 02:28:42;;;;;;;20.88;10.63;;;10.70;99.90;;;;;;4973785;28;20031;-86
2023/10/26 02:31:08;;;;;;;17.20;9.80;;;10.80;99.90;;;;;;4973588;28;20399;-85
2023/10/26 02:33:33;;;;;;;23.08;10.85;;;10.80;99.90;;;;;;4974652;28;20026;-86
2023/10/26 02:35:59;;;;;;;19.77;9.70;;;10.80;99.90;;;;;;4975033;28;20022;-88
2023/10/26 02:38:27;;;;;;;17.23;9.73;;;10.70;99.90;;;;;;4978228;28;20387;-89
2023/10/26 02:40:53;;;;;;;;;;;10.70;99.90;;;;;;4981043;28;20007;-89
2023/10/26 02:43:19;;;;;;;19.55;8.57;;;10.60;99.90;;;;;;4993834;28;19933;-88
2023/10/26 02:45:46;;;;;;;15.52;8.70;;;10.70;99.90;;;;;;5012081;28;20044;-87
2023/10/26 02:48:13;;;;;;;16.63;8.50;;;10.60;99.90;;;;;;5015518;28;20034;-90
2023/10/26 02:50:39;;;;;;;18.88;9.07;;;10.60;99.90;;;;;;5002834;28;20035;-88
2023/10/26 02:53:04;;;;;;;17.42;9.50;;;10.60;99.90;;;;;;5019551;28;20042;-87
2023/10/26 02:55:30;;;;;;;21.98;9.98;;;10.60;99.90;;;;;;5003741;28;20030;-87
2023/10/26 02:57:57;;;;;;;16.13;9.43;;;10.50;99.90;;;;;;5004191;28;20015;-87
2023/10/26 03:00:23;;;;;;;16.48;8.82;;;10.50;99.90;;;;;;5004581;28;20034;-88
2023/10/26 03:02:48;;;;;;;18.20;9.65;;;10.50;99.90;;;;;;5004742;28;20010;-88
2023/10/26 03:05:14;;;;;;;20.00;9.35;;;10.50;99.90;;;;;;4984056;28;20095;-88
2023/10/26 03:07:40;;;;;;;18.73;8.75;;;10.50;99.90;;;;;;4985239;28;20023;-88
2023/10/26 03:10:06;;;;;;;15.77;9.00;;;10.40;99.90;;;;;;4985984;28;20090;-88
2023/10/26 03:12:32;;;;;;;21.02;10.02;;;10.40;99.90;;;;;;5001963;28;20046;-89
2023/10/26 03:14:58;;;;;;;15.35;8.85;;;10.30;99.90;;;;;;4985915;28;20078;-88
2023/10/26 03:17:24;;;;;;;16.27;8.68;;;10.30;99.90;;;;;;4982842;28;20020;-88
2023/10/26 03:19:50;;;;;;;13.77;7.53;;;10.30;99.90;;;;;;4983102;28;20012;-88
2023/10/26 03:22:16;;;;;;;17.25;9.57;;;10.20;99.90;;;;;;4999581;28;20152;-87
2023/10/26 03:24:43;;;;;;;20.25;9.18;;;10.20;99.90;;;;;;5002214;28;20015;-89
2023/10/26 03:27:12;;;;;;;17.90;8.35;;;10.20;99.90;;;;;;5002357;28;20026;-89
2023/10/26 03:29:38;;;;;;;21.42;9.55;;;10.20;99.90;;;;;;5002864;28;20023;-89
2023/10/26 03:32:06;;;;;;;14.57;8.15;;;10.20;99.90;;;;;;5002826;28;20029;-88
2023/10/26 03:34:34;;;;;;;;;;;10.20;99.90;;;;;;5002617;28;20046;-89
2023/10/26 03:37:00;;;;;;;14.75;8.38;;;10.20;99.90;;;;;;5001040;28;19926;-88
2023/10/26 03:39:26;;;;;;;16.23;9.00;;;10.10;99.90;;;;;;5002163;28;20058;-89
2023/10/26 03:41:52;;;;;;;14.98;8.60;;;10.10;99.90;;;;;;5002103;28;20039;-88
2023/10/26 03:44:19;;;;;;;11.95;7.22;;;10.10;99.90;;;;;;5002593;28;20019;-88
2023/10/26 03:46:46;;;;;;;20.15;10.02;;;10.10;99.90;;;;;;5002509;28;20026;-87
2023/10/26 03:49:12;;;;;;;17.88;9.57;;;10.10;99.90;;;;;;5002160;28;20025;-87
2023/10/26 03:51:37;;;;;;;14.88;8.40;;;10.10;99.90;;;;;;5001021;28;20019;-87
2023/10/26 03:54:03;;;;;;;13.50;8.23;;;10.00;99.90;;;;;;5002358;28;20030;-86
2023/10/26 03:56:29;;;;;;;22.90;9.00;;;10.10;99.90;;;;;;5002391;28;20026;-87
2023/10/26 03:58:56;;;;;;;14.95;8.52;;;10.00;99.90;;;;;;4997354;28;19999;-86
2023/10/26 04:01:22;;;;;;;18.58;8.77;;;10.00;99.90;;;;;;5015182;28;20046;-87
2023/10/26 04:03:48;;;;;;;17.20;8.10;;;10.00;99.90;;;;;;5021668;28;20021;-87
2023/10/26 04:06:13;;;;;;;18.15;9.35;;;10.00;99.90;;;;;;5020850;28;20022;-88
2023/10/26 04:08:39;;;;;;;18.65;9.13;;;10.00;99.90;;;;;;5021057;28;20014;-86
2023/10/26 04:11:05;;;;;;;16.75;8.52;;;9.90;99.90;;;;;;5021071;28;20026;-86
2023/10/26 04:13:31;;;;;;;18.25;8.75;;;9.90;99.90;;;;;;5021066;28;20025;-87
2023/10/26 04:16:01;;;;;;;15.98;8.65;;;9.90;99.90;;;;;;5018241;28;20105;-87
2023/10/26 04:18:27;;;;;;;20.10;8.50;;;9.90;99.90;;;;;;5020887;28;20010;-87
2023/10/26 04:20:56;;;;;;;24.08;10.50;;;9.80;99.90;;;;;;5020742;28;20074;-86
2023/10/26 04:23:21;;;;;;;22.00;8.85;;;9.80;99.90;;;;;;5021276;28;20034;-87
2023/10/26 04:25:48;;;;;;;18.08;9.13;;;9.80;99.90;;;;;;5020839;28;20030;-85
2023/10/26 04:28:15;;;;;;;22.52;10.15;;;9.70;99.90;;;;;;5020917;28;20027;-87
2023/10/26 04:30:44;;;;;;;20.35;10.18;;;9.80;99.90;;;;;;5021322;28;20062;-85
2023/10/26 04:33:09;;;;;;;21.08;9.70;;;9.80;99.90;;;;;;5020709;28;20014;-85
2023/10/26 04:35:39;;;;;;;21.00;9.77;;;9.90;99.90;;;;;;5021233;28;20074;-86
2023/10/26 04:38:05;;;;;;;20.17;8.65;;;10.00;99.90;;;;;;5021010;28;20077;-85
2023/10/26 04:40:33;;;;;;;24.95;11.45;;;10.00;99.90;;;;;;5021081;28;20034;-85
2023/10/26 04:43:00;;;;;;;;;;;10.00;99.90;;;;;;5020844;28;20018;-86
2023/10/26 04:45:25;;;;;;;24.67;9.70;;;10.00;99.90;;;;;;5020389;28;19893;-86
2023/10/26 04:47:51;;;;;;;18.23;8.68;;;10.00;99.90;;;;;;5020914;28;20053;-85
2023/10/26 04:50:17;;;;;;;46.95;9.95;;;10.00;99.90;;;;;;5020353;28;20022;-86
2023/10/26 04:52:42;;;;;;;62.08;10.00;;;10.00;99.90;;;;;;5019971;28;20015;-86
2023/10/26 04:55:08;;;;;;;19.85;9.48;;;10.00;99.90;;;;;;5020866;28;20014;-86
2023/10/26 04:57:34;;;;;;;15.95;8.75;;;10.00;99.90;;;;;;5020693;28;20038;-88
2023/10/26 05:00:00;;;;;;;16.13;8.27;;;10.00;99.90;;;;;;5019863;28;20030;-88
2023/10/26 05:02:28;;;;;;;13.43;7.53;;;10.00;99.90;;;;;;5019182;28;20038;-88
2023/10/26 05:04:53;;;;;;;35.10;8.43;;;10.00;99.90;;;;;;5019460;28;20018;-89
2023/10/26 05:07:21;;;;;;;12.35;7.13;;;10.00;99.90;;;;;;5015092;28;20026;-85
2023/10/26 05:09:47;;;;;;;23.20;8.37;;;10.00;99.90;;;;;;5002854;28;20037;-89
2023/10/26 05:12:13;;;;;;;52.15;9.43;;;9.90;99.90;;;;;;5002780;28;20022;-89
2023/10/26 05:14:40;;;;;;;17.45;7.95;;;9.90;99.90;;;;;;4998587;28;20038;-88
2023/10/26 05:17:06;;;;;;;46.80;8.37;;;9.80;99.90;;;;;;5001271;28;20593;-88
2023/10/26 05:19:33;;;;;;;11.15;7.15;;;9.80;99.90;;;;;;5000179;28;20034;-89
2023/10/26 05:21:58;;;;;;;9.48;6.63;;;9.80;99.90;;;;;;4998038;28;20033;-89
2023/10/26 05:24:24;;;;;;;18.77;7.75;;;9.70;99.90;;;;;;4997894;28;20031;-89
2023/10/26 05:26:50;;;;;;;10.40;6.65;;;9.70;99.90;;;;;;4998546;28;20026;-89
2023/10/26 05:29:16;;;;;;;9.98;6.53;;;9.70;99.90;;;;;;4998132;28;20023;-90
2023/10/26 05:31:41;;;;;;;11.82;7.15;;;9.80;99.90;;;;;;4996507;28;20026;-89
2023/10/26 05:34:11;;;;;;;10.40;6.55;;;9.70;99.90;;;;;;4995854;28;20018;-89
2023/10/26 05:36:39;;;;;;;8.80;5.95;;;9.80;99.90;;;;;;4996637;28;20034;-87
2023/10/26 05:39:05;;;;;;;11.70;7.07;;;9.80;99.90;;;;;;4996181;28;20025;-88
2023/10/26 05:41:30;;;;;;;10.48;6.53;;;9.80;99.90;;;;;;4994987;28;20265;-88
2023/10/26 05:43:56;;;;;;;19.60;7.75;;;9.80;99.90;;;;;;4994774;28;20050;-88
2023/10/26 05:46:22;;;;;;;11.88;7.03;;;9.80;99.90;;;;;;4995455;28;20042;-89
2023/10/26 05:48:49;;;;;;;25.58;9.38;;;9.80;99.90;;;;;;4995035;28;20026;-89
2023/10/26 05:51:14;;;;;;;17.23;8.23;;;9.90;99.90;;;;;;4978648;28;20036;-89
2023/10/26 05:53:40;;;;;;;13.27;7.90;;;9.90;99.90;;;;;;4994310;28;20386;-88
2023/10/26 05:56:07;;;;;;;16.25;8.55;;;9.90;99.90;;;;;;4994940;28;20041;-89
2023/10/26 05:58:33;;;;;;;34.03;8.73;;;9.90;99.90;;;;;;4995606;28;20467;-88
2023/10/26 06:00:59;;;;;;;15.43;8.15;;;9.90;99.90;;;;;;4994659;28;20410;-89
2023/10/26 06:03:27;;;;;;;15.20;7.40;;;9.90;99.90;;;;;;4997058;28;20014;-88
2023/10/26 06:06:02;;;;;;;14.07;7.57;;;9.90;99.90;;;;;;4995981;28;20161;-86
2023/10/26 06:08:29;;;;;;;15.40;7.68;;;9.90;99.90;;;;;;4990002;28;20542;-86
2023/10/26 06:10:55;;;;;;;28.27;8.52;;;9.90;99.90;;;;;;4975565;28;20499;-86
2023/10/26 06:13:21;;;;;;;15.90;7.93;;;10.00;99.90;;;;;;4989239;28;20026;-86
2023/10/26 06:15:47;;;;;;;16.77;8.43;;;10.00;99.90;;;;;;4993382;28;20033;-85
2023/10/26 06:18:15;;;;;;;26.77;7.93;;;10.00;99.90;;;;;;4994609;28;20022;-85
2023/10/26 06:20:41;;;;;;;15.25;7.82;;;10.00;99.90;;;;;;4992636;28;20483;-85
2023/10/26 06:23:07;;;;;;;13.40;7.68;;;10.00;99.90;;;;;;4992865;28;20033;-85
2023/10/26 06:25:37;;;;;;;16.60;7.80;;;10.00;99.90;;;;;;4986467;28;20549;-85
2023/10/26 06:28:03;;;;;;;14.18;8.80;;;10.00;99.90;;;;;;4993974;28;20026;-84
2023/10/26 06:30:29;;;;;;;12.40;7.30;;;10.00;99.90;;;;;;4992387;28;20030;-85
2023/10/26 06:32:55;;;;;;;21.48;8.05;;;10.00;99.90;;;;;;4993529;28;20135;-85
2023/10/26 06:35:21;;;;;;;10.70;6.68;;;9.90;99.90;;;;;;4992226;28;20076;-84
2023/10/26 06:37:46;;;;;;;13.75;7.50;;;9.90;99.90;;;;;;4992311;28;20023;-84
2023/10/26 06:40:14;;;;;;;12.30;7.25;;;9.90;99.90;;;;;;4993626;28;20029;-83
2023/10/26 06:42:40;;;;;;;;;;;9.90;99.90;;;;;;4994014;28;20096;-84
2023/10/26 06:45:06;;;;;;;13.55;8.38;;;9.90;99.90;;;;;;4992329;28;20361;-84
2023/10/26 06:47:32;;;;;;;12.52;7.82;;;9.80;99.90;;;;;;4991845;28;20032;-85
2023/10/26 06:50:00;;;;;;;13.32;7.93;;;9.90;99.90;;;;;;4993578;28;20479;-84
2023/10/26 06:52:25;;;;;;;19.80;7.83;;;9.90;99.90;;;;;;4992495;28;20507;-84
2023/10/26 06:54:54;;;;;;;19.88;9.00;;;9.90;99.90;;;;;;4994256;28;20062;-84
2023/10/26 06:57:20;;;;;;;18.20;7.88;;;9.90;99.90;;;;;;4992074;28;20181;-86
2023/10/26 06:59:46;;;;;;;15.23;8.35;;;9.80;99.90;;;;;;4995785;28;20109;-84
2023/10/26 07:02:12;;;;;;;15.80;8.48;;;9.80;99.90;;;;;;4996116;28;20026;-85
2023/10/26 07:04:37;;;;;;;20.60;9.35;;;9.70;99.90;;;;;;4992399;28;20023;-86
2023/10/26 07:07:03;;;;;;;19.92;9.55;;;9.80;99.90;;;;;;4992134;28;20398;-85
2023/10/26 07:09:29;;;;;;;21.77;9.27;;;9.80;99.90;;;;;;4993642;28;20018;-85
2023/10/26 07:11:55;;;;;;;20.30;10.82;;;9.80;99.90;;;;;;4992709;28;20023;-85
2023/10/26 07:14:21;;;;;;;20.77;9.82;;;9.80;99.90;;;;;;4992700;28;20023;-85
2023/10/26 07:16:49;;;;;;;20.15;9.55;;;9.80;99.90;;;;;;4995276;28;20026;-89
2023/10/26 07:19:33;;;;;;;21.05;10.98;;;9.80;99.90;;;;;;4979456;28;20022;-91
2023/10/26 07:21:59;;;;;;;21.15;9.65;;;9.90;99.90;;;;;;4996236;28;20045;-88
2023/10/26 07:24:24;;;;;;;24.25;10.70;;;9.90;99.90;;;;;;4996911;28;20082;-90
2023/10/26 07:26:51;;;;;;;20.92;10.07;;;9.90;99.90;;;;;;4997255;28;20030;-90
2023/10/26 07:29:18;;;;;;;16.65;9.82;;;9.90;99.90;;;;;;4974656;28;20535;-89
2023/10/26 07:31:45;;;;;;;34.22;10.40;;;9.90;99.90;;;;;;4955609;28;20039;-89
2023/10/26 07:34:10;;;;;;;27.08;8.55;;;9.90;99.90;;;;;;4942936;29;20023;-90
2023/10/26 07:36:36;;;;;;;37.45;8.85;;;9.90;99.90;;;;;;4959245;29;20042;-90
2023/10/26 07:39:02;;;;;;;51.55;8.90;;;9.90;99.90;;;;;;4943420;29;20521;-90
2023/10/26 07:41:28;;;;;;;11.48;7.60;;;9.80;99.90;;;;;;4960591;29;20033;-89
2023/10/26 07:43:55;;;;;;;16.77;7.83;;;9.70;99.90;;;;;;4959671;29;20081;-90
2023/10/26 07:46:21;;;;;;;18.48;9.00;;;9.70;99.90;;;;;;4960427;28;20035;-89
2023/10/26 07:48:47;;;;;;;27.38;8.65;;;9.70;99.90;;;;;;4978577;28;20039;-90
2023/10/26 07:51:13;;;;;;;13.95;8.15;;;9.70;99.90;;;;;;4982552;28;20113;-90
2023/10/26 07:53:38;;;;;;;21.27;7.68;;;9.70;99.90;;;;;;4981071;28;20154;-90
2023/10/26 07:56:04;;;;;;;13.63;8.18;;;9.70;99.90;;;;;;4978030;28;20484;-90
2023/10/26 07:58:32;;;;;;;29.42;9.23;;;9.70;99.90;;;;;;4978589;28;20510;-89
2023/10/26 08:00:59;;;;;;;16.20;7.72;;;9.70;99.90;;;;;;5014387;28;20096;-90
2023/10/26 08:03:25;;;;;;;12.15;7.75;;;9.70;99.90;;;;;;5014190;28;20018;-89
2023/10/26 08:06:00;;;;;;;14.15;8.05;;;9.70;99.90;;;;;;4994946;28;20034;-91
2023/10/26 08:08:29;;;;;;;16.98;6.88;;;9.60;99.90;;;;;;4995612;28;20422;-89
2023/10/26 08:11:06;;;;;;;13.60;6.57;;;9.70;99.90;;;;;;4997849;28;20033;-89
2023/10/26 08:13:31;;;;;;;12.63;6.88;;;9.80;99.90;;;;;;4997652;28;20483;-90
2023/10/26 08:16:00;;;;;;;48.30;7.07;;;9.80;99.90;;;;;;4997567;28;20030;-90
2023/10/26 08:18:26;;;;;;;36.53;7.57;;;9.90;99.90;;;;;;4997026;28;20030;-90
2023/10/26 08:20:51;;;;;;;23.30;6.38;;;9.80;99.90;;;;;;4992018;28;20035;-89
2023/10/26 08:23:18;;;;;;;10.30;6.53;;;9.90;99.90;;;;;;4988765;28;20114;-88
2023/10/26 08:25:45;;;;;;;16.17;6.68;;;9.80;99.90;;;;;;4997420;28;20042;-90
2023/10/26 08:28:11;;;;;;;20.20;6.80;;;9.70;99.90;;;;;;4996501;28;20046;-90
2023/10/26 08:30:39;;;;;;;16.17;6.97;;;9.70;99.90;;;;;;4998188;28;20489;-88
2023/10/26 08:33:05;;;;;;;12.48;6.68;;;9.70;99.90;;;;;;4996782;28;20026;-91
2023/10/26 08:35:31;;;;;;;12.25;6.85;;;9.80;99.90;;;;;;4996242;28;20023;-88
2023/10/26 08:37:57;;;;;;;16.60;7.25;;;9.80;99.90;;;;;;4995215;28;20022;-86
2023/10/26 08:40:23;;;;;;;19.52;6.45;;;9.90;99.90;;;;;;4995618;28;20039;-87
2023/10/26 08:42:49;;;;;;;14.05;6.85;;;9.90;99.90;;;;;;4997291;28;20029;-86
2023/10/26 08:45:23;;;;;;;13.13;6.40;;;10.00;99.90;;;;;;4995349;28;20109;-88
2023/10/26 08:47:50;;;;;;;11.68;6.70;;;10.00;99.90;;;;;;4997840;28;20430;-88
2023/10/26 08:50:23;;;;;;;11.57;6.87;;;10.10;99.90;;;;;;4997211;28;20030;-89
2023/10/26 08:52:51;;;;;;;11.57;6.07;;;10.20;99.90;;;;;;4994176;28;20815;-89
2023/10/26 08:55:17;;;;;;;15.75;7.07;;;10.20;99.90;;;;;;4995761;28;20034;-87
2023/10/26 08:57:54;;;;;;;11.85;6.93;;;10.30;99.90;;;;;;4995226;28;20575;-88
2023/10/26 09:00:21;;;;;;;11.27;6.82;;;10.30;99.90;;;;;;4995059;28;20050;-88
2023/10/26 09:02:50;;;;;;;11.63;7.15;;;10.40;99.90;;;;;;4996756;28;20029;-88
2023/10/26 09:05:17;;;;;;;12.95;6.35;;;10.60;99.90;;;;;;4996452;28;20049;-91
2023/10/26 09:07:43;;;;;;;11.98;7.03;;;10.50;99.90;;;;;;4997200;28;20027;-90
2023/10/26 09:10:09;;;;;;;10.75;6.07;;;10.40;99.90;;;;;;4996366;28;20027;-90
2023/10/26 09:12:35;;;;;;;18.80;6.88;;;10.40;99.90;;;;;;4996985;28;20081;-87
2023/10/26 09:15:03;;;;;;;21.70;8.38;;;10.40;99.90;;;;;;4996954;28;20394;-88
2023/10/26 09:17:30;;;;;;;19.27;7.28;;;10.40;99.90;;;;;;4993882;28;20030;-89
2023/10/26 09:19:57;;;;;;;11.13;6.72;;;10.40;99.90;;;;;;4996025;28;20482;-89
2023/10/26 09:22:36;;;;;;;15.13;7.38;;;10.30;99.90;;;;;;4996048;28;20129;-87
2023/10/26 09:25:09;;;;;;;14.32;8.07;;;10.40;99.90;;;;;;4997499;28;20034;-88
2023/10/26 09:27:35;;;;;;;23.42;7.28;;;10.50;99.90;;;;;;4994800;28;20120;-88
2023/10/26 09:30:03;;;;;;;23.33;6.32;;;10.50;99.90;;;;;;4959826;28;20031;-90
2023/10/26 09:32:36;;;;;;;19.70;7.10;;;10.60;99.90;;;;;;4976527;28;20447;-91
2023/10/26 09:35:03;;;;;;;11.93;7.32;;;10.50;99.90;;;;;;4975667;28;20472;-92
2023/10/26 09:37:29;;;;;;;12.13;6.93;;;10.50;99.90;;;;;;4974543;28;20050;-87
2023/10/26 09:39:57;;;;;;;13.45;7.00;;;10.40;99.90;;;;;;4971138;28;20047;-87
2023/10/26 09:42:25;;;;;;;14.18;6.82;;;10.50;99.90;;;;;;4955023;28;20039;-87
2023/10/26 09:44:50;;;;;;;;;;;10.60;99.90;;;;;;4958554;28;20082;-88
2023/10/26 09:47:18;;;;;;;13.15;7.05;;;10.60;99.90;;;;;;4973360;28;19935;-89
2023/10/26 09:49:44;;;;;;;7.85;4.60;;;10.60;99.90;;;;;;4957489;28;20031;-88
2023/10/26 09:52:10;;;;;;;11.15;6.28;;;10.50;99.90;;;;;;4954325;29;20031;-86
2023/10/26 09:54:37;;;;;;;13.38;7.28;;;10.50;99.90;;;;;;4944235;29;20274;-90
2023/10/26 09:57:21;;;;;;;21.15;7.45;;;10.50;99.90;;;;;;4938587;29;20122;-86
2023/10/26 09:59:52;;;;;;;17.23;7.72;;;10.60;99.90;;;;;;4953732;29;20475;-89
2023/10/26 10:02:19;;;;;;;13.60;8.00;;;10.70;99.90;;;;;;4994225;28;20089;-87
2023/10/26 10:04:45;;;;;;;17.42;7.65;;;10.70;99.90;;;;;;4997557;28;20018;-88
2023/10/26 10:07:19;;;;;;;13.43;7.95;;;10.70;99.90;;;;;;5010544;28;20033;-89
2023/10/26 10:10:03;;;;;;;15.13;8.32;;;10.80;99.90;;;;;;4992126;28;20046;-89
2023/10/26 10:12:29;;;;;;;13.68;7.72;;;10.90;99.90;;;;;;4995952;28;20033;-88
2023/10/26 10:14:57;;;;;;;14.27;8.00;;;10.90;99.90;;;;;;4994349;28;20030;-87
2023/10/26 10:17:46;;;;;;;15.68;8.73;;;10.90;99.90;;;;;;4992718;28;20077;-90
2023/10/26 10:20:15;;;;;;;17.27;8.10;;;10.80;99.90;;;;;;4995174;28;20019;-93
2023/10/26 10:22:41;;;;;;;18.52;8.90;;;10.80;99.90;;;;;;4995438;28;20041;-88
2023/10/26 10:25:12;;;;;;;16.25;8.90;;;10.80;99.90;;;;;;4994218;28;20533;-86
2023/10/26 10:27:38;;;;;;;15.18;8.43;;;10.80;99.90;;;;;;4993489;28;20506;-86
2023/10/26 10:30:08;;;;;;;17.20;8.82;;;10.80;99.90;;;;;;4994302;28;20025;-87
2023/10/26 10:32:42;;;;;;;18.02;9.52;;;10.90;99.90;;;;;;4993576;28;20486;-87
2023/10/26 10:35:09;;;;;;;16.10;8.93;;;10.90;99.90;;;;;;4974407;28;20027;-89
2023/10/26 10:37:35;;;;;;;15.20;8.43;;;11.00;99.90;;;;;;4987471;28;20517;-92
2023/10/26 10:40:14;;;;;;;17.35;8.23;;;11.10;99.90;;;;;;4993541;28;20123;-87
2023/10/26 10:42:51;;;;;;;15.23;8.18;;;11.20;99.90;;;;;;4992608;28;20483;-86
2023/10/26 10:45:18;;;;;;;10.85;6.70;;;11.30;99.90;;;;;;4993886;28;20030;-89
2023/10/26 10:47:46;;;;;;;14.05;7.95;;;11.50;99.90;;;;;;4991601;28;20515;-91
2023/10/26 10:50:23;;;;;;;19.23;9.55;;;11.70;99.90;;;;;;4995263;28;20021;-88
2023/10/26 10:52:54;;;;;;;12.83;7.63;;;11.80;99.90;;;;;;5008273;28;20034;-90
2023/10/26 10:55:29;;;;;;;14.63;8.00;;;11.80;99.90;;;;;;4975091;28;20062;-89
2023/10/26 10:58:02;;;;;;;16.77;8.57;;;11.90;99.90;;;;;;4942172;28;20077;-88
2023/10/26 11:00:45;;;;;;;16.77;8.45;;;11.80;99.90;;;;;;4956624;28;20186;-87
2023/10/26 11:03:37;;;;;;;11.60;7.32;;;12.00;99.90;;;;;;4972654;28;20030;-88
2023/10/26 11:06:03;;;;;;;14.07;7.45;;;11.90;99.90;;;;;;4968847;28;20602;-86
2023/10/26 11:08:38;;;;;;;11.27;7.30;;;11.80;99.90;;;;;;4967478;28;20125;-88
2023/10/26 11:11:04;;;;;;;11.23;7.05;;;11.70;99.90;;;;;;4973533;28;20035;-88
2023/10/26 11:13:29;;;;;;;12.23;7.00;;;11.70;99.90;;;;;;4980418;28;20023;-88
2023/10/26 11:15:56;;;;;;;13.07;7.47;;;11.70;99.90;;;;;;4964072;28;20031;-89
2023/10/26 11:18:22;;;;;;;18.25;7.55;;;11.60;99.90;;;;;;4983416;28;20086;-88
2023/10/26 11:20:49;;;;;;;11.88;7.95;;;11.60;99.90;;;;;;4963845;28;20031;-88
2023/10/26 11:23:21;;;;;;;15.50;7.93;;;11.60;99.90;;;;;;4959956;28;20061;-87
2023/10/26 11:25:47;;;;;;;10.18;5.72;;;11.80;99.90;;;;;;4962086;28;20511;-88
2023/10/26 11:28:13;;;;;;;10.60;6.80;;;11.90;99.90;;;;;;4990983;28;20171;-88
2023/10/26 11:30:48;;;;;;;12.00;7.15;;;11.90;99.90;;;;;;4996825;28;20117;-89
2023/10/26 11:33:37;;;;;;;14.25;8.02;;;11.90;99.90;;;;;;4996725;28;20034;-88
2023/10/26 11:36:08;;;;;;;13.90;8.02;;;11.90;99.90;;;;;;4996783;28;20030;-90
2023/10/26 11:38:34;;;;;;;10.45;6.28;;;11.80;99.90;;;;;;4998594;28;20073;-88
2023/10/26 11:41:00;;;;;;;15.52;8.00;;;11.80;99.90;;;;;;4997709;28;20023;-88
2023/10/26 11:43:33;;;;;;;15.30;7.47;;;11.70;99.90;;;;;;4995877;28;20018;-88
2023/10/26 11:46:02;;;;;;;15.55;7.75;;;11.80;99.90;;;;;;4996179;28;20479;-88
2023/10/26 11:48:31;;;;;;;12.95;7.63;;;11.70;99.90;;;;;;4996710;28;20027;-88
2023/10/26 11:50:57;;;;;;;10.07;6.65;;;11.60;99.90;;;;;;4996704;28;20118;-89
2023/10/26 11:53:26;;;;;;;10.57;6.78;;;11.50;99.90;;;;;;4998110;28;20022;-89
2023/10/26 11:55:52;;;;;;;11.75;7.18;;;11.50;99.90;;;;;;4997717;28;20169;-88
2023/10/26 11:58:18;;;;;;;10.95;6.75;;;11.30;99.90;;;;;;4996994;28;20114;-86
2023/10/26 12:00:44;;;;;;;10.10;6.38;;;11.30;99.90;;;;;;4995682;28;20054;-89
2023/10/26 12:03:11;;;;;;;9.93;6.18;;;11.20;99.90;;;;;;4997017;28;20418;-87
2023/10/26 12:05:36;;;;;;;12.05;7.38;;;11.10;99.90;;;;;;4996687;28;20041;-86
2023/10/26 12:08:03;;;;;;;15.20;6.85;;;11.00;99.90;;;;;;4995284;28;20487;-88
2023/10/26 12:10:28;;;;;;;12.95;6.65;;;11.00;99.90;;;;;;4996792;28;20057;-87
2023/10/26 12:12:57;;;;;;;11.82;6.20;;;11.00;99.90;;;;;;4995367;28;20434;-86
2023/10/26 12:15:23;;;;;;;12.20;7.03;;;11.00;99.90;;;;;;4995506;28;20026;-87
2023/10/26 12:17:49;;;;;;;13.63;6.97;;;11.00;99.90;;;;;;4995968;28;20113;-85
2023/10/26 12:20:17;;;;;;;11.02;6.68;;;11.10;99.90;;;;;;4996120;28;20495;-87
2023/10/26 12:22:43;;;;;;;;;;;11.20;99.90;;;;;;4996400;28;20096;-85
2023/10/26 12:25:10;;;;;;;11.30;6.00;;;11.20;99.90;;;;;;4995987;28;19909;-87
2023/10/26 12:27:37;;;;;;;10.13;6.57;;;11.20;99.90;;;;;;4993608;28;20043;-91
2023/10/26 12:30:04;;;;;;;14.40;7.35;;;11.10;99.90;;;;;;4997150;28;20089;-87
2023/10/26 12:32:33;;;;;;;17.67;7.47;;;11.10;99.90;;;;;;4992411;28;20451;-88
2023/10/26 12:34:58;;;;;;;15.32;7.05;;;11.00;99.90;;;;;;4995327;28;20023;-88
2023/10/26 12:37:24;;;;;;;12.15;7.18;;;11.00;99.90;;;;;;4994878;28;20387;-86
2023/10/26 12:39:50;;;;;;;18.40;8.40;;;11.10;99.90;;;;;;4996271;28;20030;-87
2023/10/26 12:42:17;;;;;;;14.10;7.07;;;11.10;99.90;;;;;;4996080;28;20533;-86